Allenton, MO

9:12 AM CDT on August 30, 2014 (GMT -0500)
Old Town | Change Station
CLOSE
Current Station
Personal Weather Station
Location: Pacific, MO
Elevation: 495 ft
Nearby Weather Stations

Elev 495 ft 38.48 °N, 90.75 °W | Updated 2 minutes ago

Mostly Cloudy
Mostly Cloudy
75.6 °F
Feels Like 76 °F
N
0.0
Wind Variable Wind from SW
Gusts 0.0 mph

Today
High -- | Low -- °F
--% Chance of Precip.
Yesterday
High -- | Low -- °F
Precip. -- in
6:30 AM 7:35 PM
Waxing Crescent, 22% visible
Pressure 29.93 in
Visibility 10.0 miles
Clouds Scattered Clouds 15000 ft
Mostly Cloudy 25000 ft
Heat Index 76 °F
Dew Point 71 °F
Humidity 85%
Rainfall 0.00 in
Snow Depth Not available.
UV 1 out of 12
Pollen 8.30 out of 12
Ozone Good
PM2.5 Good
Flu Activity Not available.
METAR KSUS 301354Z 00000KT 10SM SCT150 BKN250 24/21 A2995 RMK AO2 SLP133 T02390206

More Conditions Fewer Conditions

Pressure 29.93 in
Visibility 10.0 miles
Clouds Scattered Clouds 15000 ft
Mostly Cloudy 25000 ft
Heat Index 76 °F
Dew Point 71 °F
Humidity 85%
Rainfall 0.00 in
Snow Depth Not available.
UV 1 out of 12
Pollen 8.30 out of 12
Ozone Good
PM2.5 Good
Flu Activity Not available.
METAR KSUS 301354Z 00000KT 10SM SCT150 BKN250 24/21 A2995 RMK AO2 SLP133 T02390206

More Conditions Fewer Conditions

10-Day Weather Forecast

Almanac

Astronomy

Aug. 30, 2014 Rise Set
Actual Time 6:30 AM CDT 7:35 PM CDT
Civil Twilight 6:03 AM CDT 8:02 PM CDT
Nautical Twilight 5:30 AM CDT 8:35 PM CDT
Astronomical Twilight 4:56 AM CDT 9:08 PM CDT
Moon 11:14 AM CDT 10:14 PM CDT
Length of Visible Light 13h 59m
Length of Day
13h 05m
Tomorrow will be 2m 22s shorter.
Waxing Crescent, 22% of the Moon is Illuminated
Today
Waxing Crescent
Sep 2
First Quarter
Sep 8
Full
Sep 15
Last Quarter
Sep 24
New

Today's Extremes

State Highs State Lows

Community

WunderPhotos

Upload Photos

1,748,516 photos uploaded!

WunderBlogs® & News

By Dr. Jeff Masters
Director of Meteorology, Weather Underground
By Kari Strenfel
Meteorologist, Weather Underground
By Christopher C. Burt
Weather Historian, Weather Underground
August 30, 2014
August 30, 2014
August 30, 2014

Nearby

Air Quality

  Air Quality AQ Index Pollutant
Yesterday Moderate
PM2.5
Yesterday Moderate
OZONE
Current Good
PM2.5
Current Good
OZONE
Saturday Moderate
OZONE
Saturday Good
PM2.5

Snow Depth

Station Depth Elevation
No new snow has been reported.

Earthquake Activity

City Distance Mag. Time & Date
No recent earthquake activity has been reported nearby.
Minimum magnitude displayed is 2.5.

Coastal Water Temperatures

Place Temperature
No Stations Reporting

Nearby Weather Stations